Time;durP1;ratioP1;P1;durP2;ratioP2;P2;SDS_P1;SDS_P2;PMS_P1;PMS_P2;Temp;Humidity;BMP_temperature;BMP_pressure;BME280_temperature;BME280_humidity;BME280_pressure;Samples;Min_cycle;Max_cycle;Signal;HPM_P1;HPM_P2
2024/04/12 00:01:14;;;;;;;7.88;2.97;;;7.90;99.90;;;;;;5415960;26;19999;-77
2024/04/12 00:03:41;;;;;;;5.13;2.30;;;8.00;99.90;;;;;;5446955;26;20007;-77
2024/04/12 00:06:17;;;;;;;3.08;2.15;;;8.00;99.90;;;;;;5448684;26;20002;-79
2024/04/12 00:08:50;;;;;;;8.68;2.75;;;8.00;99.90;;;;;;5431047;26;19994;-76
2024/04/12 00:11:21;;;;;;;3.85;2.50;;;8.00;99.90;;;;;;5448773;26;20033;-77
2024/04/12 00:13:48;;;;;;;5.60;3.65;;;7.90;99.90;;;;;;5447661;26;20002;-76
2024/04/12 00:16:17;;;;;;;7.38;2.35;;;7.90;99.90;;;;;;5448275;26;20483;-78
2024/04/12 00:18:46;;;;;;;4.70;2.72;;;7.90;99.90;;;;;;5447201;26;20125;-78
2024/04/12 00:21:12;;;;;;;4.05;2.28;;;7.70;99.90;;;;;;5448555;26;20003;-77
2024/04/12 00:23:39;;;;;;;4.35;2.83;;;7.50;99.90;;;;;;5429453;26;20010;-78
2024/04/12 00:26:05;;;;;;;5.95;2.85;;;7.60;99.90;;;;;;5448111;26;19991;-77
2024/04/12 00:28:33;;;;;;;4.95;2.42;;;7.70;99.90;;;;;;5447750;26;19994;-78
2024/04/12 00:30:59;;;;;;;4.90;2.58;;;7.70;99.90;;;;;;5448380;26;20587;-78
2024/04/12 00:33:34;;;;;;;9.65;2.95;;;7.60;99.90;;;;;;5446390;26;20088;-78
2024/04/12 00:36:13;;;;;;;5.53;2.33;;;7.40;99.90;;;;;;5448313;26;20006;-78
2024/04/12 00:38:43;;;;;;;5.85;2.80;;;7.40;99.90;;;;;;5447685;26;20030;-78
2024/04/12 00:41:14;;;;;;;6.45;2.33;;;7.40;99.90;;;;;;5438486;26;20010;-78
2024/04/12 00:43:48;;;;;;;10.45;2.13;;;7.20;99.90;;;;;;5430312;26;20382;-78
2024/04/12 00:46:28;;;;;;;2.67;2.20;;;7.10;99.90;;;;;;5442854;26;20080;-77
2024/04/12 00:48:57;;;;;;;4.50;2.47;;;7.10;99.90;;;;;;5402855;26;20430;-77
2024/04/12 00:51:27;;;;;;;6.35;2.67;;;7.20;99.90;;;;;;5412557;26;20004;-78
2024/04/12 00:53:57;;;;;;;11.88;2.95;;;7.00;99.90;;;;;;5412151;26;20011;-78
2024/04/12 00:56:27;;;;;;;3.97;2.20;;;7.00;99.90;;;;;;5379832;26;20333;-77
2024/04/12 00:58:59;;;;;;;3.78;2.67;;;7.00;99.90;;;;;;5412032;26;20509;-78
2024/04/12 01:01:25;;;;;;;7.35;2.80;;;7.10;99.90;;;;;;5411551;26;19995;-77
2024/04/12 01:03:55;;;;;;;9.73;3.10;;;7.20;99.90;;;;;;5419818;26;20017;-79
2024/04/12 01:06:29;;;;;;;5.80;2.72;;;7.30;99.90;;;;;;5449285;26;20011;-79
2024/04/12 01:08:58;;;;;;;3.45;2.55;;;7.10;99.90;;;;;;5438911;26;20042;-80
2024/04/12 01:11:27;;;;;;;3.47;2.60;;;6.90;99.90;;;;;;5413333;26;20004;-79
2024/04/12 01:13:53;;;;;;;5.00;3.00;;;6.80;99.90;;;;;;5416566;26;19999;-78
2024/04/12 01:16:21;;;;;;;9.55;2.45;;;6.80;99.90;;;;;;5422854;26;20006;-78
2024/04/12 01:18:49;;;;;;;3.75;2.30;;;6.70;99.90;;;;;;5437324;26;20007;-78
2024/04/12 01:21:15;;;;;;;4.07;2.55;;;6.60;99.90;;;;;;5433247;26;19999;-78
2024/04/12 01:23:43;;;;;;;5.97;2.75;;;6.60;99.90;;;;;;5415684;26;20352;-78
2024/04/12 01:26:10;;;;;;;4.88;2.40;;;6.50;99.90;;;;;;5448236;26;20508;-78
2024/04/12 01:28:37;;;;;;;10.63;2.80;;;6.50;99.90;;;;;;5422347;26;20022;-79
2024/04/12 01:31:02;;;;;;;6.72;3.20;;;6.70;99.90;;;;;;5448329;26;19998;-79
2024/04/12 01:33:31;;;;;;;2.25;1.83;;;6.70;99.90;;;;;;5446941;26;19995;-79
2024/04/12 01:36:04;;;;;;;7.40;2.63;;;6.70;99.90;;;;;;5428775;26;20002;-80
2024/04/12 01:38:31;;;;;;;4.45;2.72;;;6.70;99.90;;;;;;5448343;26;20359;-78
2024/04/12 01:40:57;;;;;;;6.75;2.78;;;6.80;99.90;;;;;;5447845;26;20031;-79
2024/04/12 01:43:26;;;;;;;10.02;3.42;;;6.90;99.90;;;;;;5447965;26;19991;-79
2024/04/12 01:45:54;;;;;;;7.68;2.92;;;6.90;99.90;;;;;;5422007;26;20067;-79
2024/04/12 01:48:22;;;;;;;8.10;3.10;;;7.00;99.90;;;;;;5446349;26;20048;-78
2024/04/12 01:50:51;;;;;;;8.27;3.17;;;7.00;99.90;;;;;;5443624;26;20013;-79
2024/04/12 01:53:21;;;;;;;9.77;3.38;;;6.90;99.90;;;;;;5427294;26;20009;-79
2024/04/12 01:55:50;;;;;;;8.88;3.40;;;7.00;99.90;;;;;;5446505;26;19994;-78
2024/04/12 01:58:20;;;;;;;11.30;3.33;;;6.90;99.90;;;;;;5446583;26;20003;-77
2024/04/12 02:00:46;;;;;;;5.00;2.90;;;6.90;99.90;;;;;;5446359;26;20704;-76
2024/04/12 02:03:13;;;;;;;9.70;3.85;;;6.90;99.90;;;;;;5413372;26;20002;-77
2024/04/12 02:05:39;;;;;;;7.93;3.50;;;6.90;99.90;;;;;;5446433;26;19999;-77
2024/04/12 02:08:16;;;;;;;5.57;3.38;;;6.90;99.90;;;;;;5432993;26;19999;-77
2024/04/12 02:10:43;;;;;;;5.97;2.83;;;6.90;99.90;;;;;;5446284;26;20014;-77
2024/04/12 02:13:16;;;;;;;7.70;2.70;;;6.60;99.90;;;;;;5446068;26;19999;-77
2024/04/12 02:15:46;;;;;;;9.88;3.20;;;6.50;99.90;;;;;;5446668;26;20403;-76
2024/04/12 02:18:13;;;;;;;7.40;3.00;;;6.60;99.90;;;;;;5440135;26;20002;-77
2024/04/12 02:20:44;;;;;;;7.07;2.60;;;6.40;99.90;;;;;;5426494;26;20013;-78
2024/04/12 02:23:14;;;;;;;3.03;2.63;;;6.10;99.90;;;;;;5446767;26;20013;-77
2024/04/12 02:25:41;;;;;;;7.05;2.80;;;6.20;99.90;;;;;;5435686;26;19995;-79
2024/04/12 02:28:11;;;;;;;14.18;4.05;;;6.20;99.90;;;;;;5449952;26;20009;-79
2024/04/12 02:30:45;;;;;;;7.47;3.03;;;6.20;99.90;;;;;;5449644;26;20007;-79
2024/04/12 02:33:15;;;;;;;9.05;2.83;;;6.20;99.90;;;;;;5448048;26;19999;-78
2024/04/12 02:35:41;;;;;;;9.15;2.95;;;6.10;99.90;;;;;;5425008;26;20002;-78
2024/04/12 02:38:22;;;;;;;9.55;3.50;;;6.10;99.90;;;;;;5436282;26;19998;-79
2024/04/12 02:40:50;;;;;;;6.05;3.15;;;6.20;99.90;;;;;;5404321;26;19998;-78
2024/04/12 02:43:16;;;;;;;7.78;2.90;;;6.20;99.90;;;;;;5447681;26;20436;-78
2024/04/12 02:45:50;;;;;;;8.00;3.47;;;6.20;99.90;;;;;;5417044;26;20452;-78
2024/04/12 02:48:22;;;;;;;7.25;3.03;;;6.30;99.90;;;;;;5448192;26;20062;-77
2024/04/12 02:50:56;;;;;;;4.32;3.10;;;6.30;99.90;;;;;;5449183;26;20011;-77
2024/04/12 02:53:23;;;;;;;6.38;3.13;;;6.40;99.90;;;;;;5449298;26;20401;-77
2024/04/12 02:56:03;;;;;;;6.93;3.30;;;6.30;99.90;;;;;;5448959;26;20013;-77
2024/04/12 02:58:38;;;;;;;7.70;3.80;;;6.30;99.90;;;;;;5443072;26;20755;-77
2024/04/12 03:01:12;;;;;;;7.60;2.60;;;6.40;99.90;;;;;;5448075;26;20332;-77
2024/04/12 03:03:45;;;;;;;5.82;3.13;;;6.10;99.90;;;;;;5447972;26;19998;-78
2024/04/12 03:06:17;;;;;;;8.07;2.83;;;5.90;99.90;;;;;;5449355;26;20452;-76
2024/04/12 03:08:47;;;;;;;3.42;2.50;;;5.70;99.90;;;;;;5448903;26;20002;-77
2024/04/12 03:11:21;;;;;;;8.50;3.17;;;5.60;99.90;;;;;;5449111;26;20007;-77
2024/04/12 03:13:58;;;;;;;10.32;3.17;;;5.60;99.90;;;;;;5448554;26;20027;-76
2024/04/12 03:16:24;;;;;;;7.20;3.17;;;5.50;99.90;;;;;;5436800;26;19995;-76
2024/04/12 03:18:51;;;;;;;9.75;3.50;;;5.70;99.90;;;;;;5447917;26;19999;-75
2024/04/12 03:21:21;;;;;;;6.43;3.30;;;5.80;99.90;;;;;;5445340;26;20002;-78
2024/04/12 03:23:47;;;;;;;7.03;3.72;;;5.90;99.90;;;;;;5424326;26;19995;-76
2024/04/12 03:26:21;;;;;;;8.40;3.40;;;6.00;99.90;;;;;;5448719;26;19994;-77
2024/04/12 03:28:49;;;;;;;6.78;3.65;;;6.20;99.90;;;;;;5447923;26;20014;-77
2024/04/12 03:31:17;;;;;;;12.13;4.32;;;6.20;99.90;;;;;;5447994;26;20002;-77
2024/04/12 03:33:43;;;;;;;12.65;3.88;;;6.40;99.90;;;;;;5446789;26;19999;-76
2024/04/12 03:36:26;;;;;;;9.98;4.43;;;6.60;99.90;;;;;;5447705;26;20034;-77
2024/04/12 03:42:03;;;;;;;9.73;4.25;;;7.00;99.90;;;;;;5447710;26;20461;-76
2024/04/12 03:44:32;;;;;;;9.30;4.10;;;7.00;99.90;;;;;;5447917;26;20003;-78
2024/04/12 03:47:00;;;;;;;9.25;5.13;;;7.00;99.90;;;;;;5446764;26;20013;-76
2024/04/12 03:49:28;;;;;;;8.70;4.50;;;6.90;99.90;;;;;;5448075;26;20332;-77
2024/04/12 03:51:56;;;;;;;9.20;3.83;;;6.90;99.90;;;;;;5422629;26;19996;-77
2024/04/12 03:54:26;;;;;;;8.48;4.03;;;6.90;99.90;;;;;;5447647;26;19995;-77
2024/04/12 03:56:53;;;;;;;9.38;3.22;;;6.90;99.90;;;;;;5447916;26;19999;-79
2024/04/12 03:59:24;;;;;;;9.88;4.07;;;7.00;99.90;;;;;;5448396;26;20547;-79
2024/04/12 04:01:54;;;;;;;7.93;4.13;;;7.20;99.90;;;;;;5448041;26;20006;-79
2024/04/12 04:04:25;;;;;;;4.38;3.42;;;7.20;99.90;;;;;;5447534;26;20007;-78
2024/04/12 04:06:55;;;;;;;7.38;3.47;;;7.40;99.90;;;;;;5448369;26;20238;-79
2024/04/12 04:09:25;;;;;;;7.70;2.97;;;7.50;99.90;;;;;;5448424;26;20140;-78
2024/04/12 04:11:55;;;;;;;12.63;3.85;;;7.70;99.90;;;;;;5446917;26;20002;-79
2024/04/12 04:14:25;;;;;;;8.73;4.03;;;7.70;99.90;;;;;;5444839;26;20018;-79
2024/04/12 04:17:00;;;;;;;5.53;3.90;;;7.70;99.90;;;;;;5446300;26;20709;-77
2024/04/12 04:19:33;;;;;;;7.53;3.28;;;7.70;99.90;;;;;;5442166;26;19999;-79
2024/04/12 04:22:02;;;;;;;5.55;3.20;;;7.80;99.90;;;;;;5447750;26;20034;-79
2024/04/12 04:24:34;;;;;;;11.75;3.00;;;7.80;99.90;;;;;;5448366;26;20707;-78
2024/04/12 04:27:02;;;;;;;3.80;3.05;;;7.90;99.90;;;;;;5447482;26;20003;-78
2024/04/12 04:29:28;;;;;;;10.68;4.35;;;7.90;99.90;;;;;;5447213;26;19999;-78
2024/04/12 04:31:56;;;;;;;6.35;3.47;;;8.00;99.90;;;;;;5447068;26;20045;-78
2024/04/12 04:34:22;;;;;;;12.00;3.75;;;8.10;99.90;;;;;;5439990;26;19995;-79
2024/04/12 04:36:49;;;;;;;5.97;3.47;;;8.20;99.90;;;;;;5448074;26;20013;-79
2024/04/12 04:39:16;;;;;;;10.35;3.70;;;8.20;99.90;;;;;;5429653;26;20003;-79
2024/04/12 04:41:53;;;;;;;13.68;3.90;;;8.30;99.90;;;;;;5433447;26;20007;-79
2024/04/12 04:44:18;;;;;;;7.00;3.60;;;8.30;99.90;;;;;;5446958;26;20014;-80
2024/04/12 04:46:49;;;;;;;8.25;3.60;;;8.40;99.90;;;;;;5439085;26;19991;-80
2024/04/12 04:49:17;;;;;;;9.00;3.75;;;8.40;99.90;;;;;;5425227;26;20010;-79
2024/04/12 04:51:43;;;;;;;6.25;3.25;;;8.40;99.90;;;;;;5447818;26;20372;-79
2024/04/12 04:54:13;;;;;;;11.43;3.80;;;8.50;99.90;;;;;;5447601;26;20014;-80
2024/04/12 04:56:39;;;;;;;8.73;4.05;;;8.50;99.90;;;;;;5447045;26;20006;-79
2024/04/12 04:59:07;;;;;;;5.75;3.47;;;8.60;99.90;;;;;;5436276;26;20038;-80
2024/04/12 05:01:35;;;;;;;11.93;3.47;;;8.60;99.90;;;;;;5426387;26;20011;-79
2024/04/12 05:04:02;;;;;;;3.83;3.22;;;8.70;99.90;;;;;;5439523;26;19999;-79
2024/04/12 05:06:29;;;;;;;8.70;3.58;;;8.70;99.90;;;;;;5447658;26;20018;-79
2024/04/12 05:08:56;;;;;;;8.27;3.50;;;8.70;99.90;;;;;;5438705;26;20522;-77
2024/04/12 05:11:24;;;;;;;9.00;3.35;;;8.80;99.90;;;;;;5448102;26;19995;-79
2024/04/12 05:13:55;;;;;;;7.25;3.10;;;8.80;99.90;;;;;;5427201;26;20003;-79
2024/04/12 05:16:22;;;;;;;9.75;3.80;;;8.80;99.90;;;;;;5423359;26;20002;-82
2024/04/12 05:18:53;;;;;;;9.10;3.17;;;8.90;99.90;;;;;;5446007;26;20006;-79
2024/04/12 05:21:23;;;;;;;13.52;7.28;;;8.90;99.90;;;;;;5447900;26;20003;-79
2024/04/12 05:23:51;;;;;;;6.88;4.20;;;8.90;99.90;;;;;;5447602;26;20030;-81
2024/04/12 05:26:17;;;;;;;9.75;4.72;;;8.80;99.90;;;;;;5426064;26;19999;-81
2024/04/12 05:28:43;;;;;;;17.67;6.47;;;8.80;99.90;;;;;;5446961;26;20013;-80
2024/04/12 05:31:12;;;;;;;15.10;4.38;;;8.90;99.90;;;;;;5447379;26;19999;-80
2024/04/12 05:33:43;;;;;;;4.70;3.63;;;8.90;99.90;;;;;;5437879;26;20356;-81
2024/04/12 05:36:10;;;;;;;10.45;4.25;;;8.90;99.90;;;;;;5447713;26;20014;-83
2024/04/12 05:38:38;;;;;;;10.13;3.92;;;8.90;99.90;;;;;;5443066;26;19996;-82
2024/04/12 05:41:04;;;;;;;9.77;4.32;;;8.90;99.90;;;;;;5446839;26;19999;-82
2024/04/12 05:43:30;;;;;;;16.95;4.63;;;9.00;99.90;;;;;;5447257;26;20127;-83
2024/04/12 05:45:57;;;;;;;7.70;4.30;;;9.10;99.90;;;;;;5446881;26;20014;-80
2024/04/12 05:48:24;;;;;;;8.48;4.20;;;9.20;99.90;;;;;;5414072;26;20651;-81
2024/04/12 05:50:53;;;;;;;10.23;4.13;;;9.20;99.90;;;;;;5434679;26;19999;-83
2024/04/12 05:53:23;;;;;;;10.00;3.75;;;9.30;99.90;;;;;;5446006;26;20056;-83
2024/04/12 05:56:20;;;;;;;7.35;4.32;;;9.20;99.90;;;;;;5447551;26;20011;-82
2024/04/12 05:58:40;;;;;;;9.80;3.85;;;9.20;99.90;;;;;;5446957;26;19999;-81
2024/04/12 06:01:07;;;;;;;6.55;3.72;;;9.20;99.90;;;;;;5446431;26;20015;-81
2024/04/12 06:03:34;;;;;;;10.00;4.88;;;9.40;99.90;;;;;;5444276;26;20010;-80
2024/04/12 06:06:00;;;;;;;8.63;4.40;;;9.50;99.90;;;;;;5406360;26;20084;-81
2024/04/12 06:08:26;;;;;;;13.13;5.32;;;9.70;99.90;;;;;;5436002;26;20705;-78
2024/04/12 06:10:55;;;;;;;10.15;4.28;;;9.90;99.90;;;;;;5439754;26;19994;-78
2024/04/12 06:13:23;;;;;;;10.77;4.70;;;10.00;99.90;;;;;;5415035;26;19995;-79
2024/04/12 06:15:49;;;;;;;16.30;5.38;;;10.10;99.90;;;;;;5446140;26;19994;-80
2024/04/12 06:18:16;;;;;;;8.32;4.30;;;10.20;99.90;;;;;;5446019;26;20048;-80
2024/04/12 06:20:43;;;;;;;8.40;3.90;;;10.30;99.90;;;;;;5447349;26;19991;-80
2024/04/12 06:23:11;;;;;;;9.80;4.00;;;10.40;99.90;;;;;;5432709;26;20000;-83
2024/04/12 06:25:43;;;;;;;9.30;4.65;;;10.50;99.90;;;;;;5441873;26;19998;-75
2024/04/12 06:28:13;;;;;;;8.10;3.97;;;10.70;99.90;;;;;;5436138;26;20386;-75
2024/04/12 06:30:46;;;;;;;9.25;4.20;;;10.60;99.90;;;;;;5417048;26;20003;-75
2024/04/12 06:33:22;;;;;;;9.52;4.07;;;10.70;99.90;;;;;;5433650;26;20444;-78
2024/04/12 06:35:52;;;;;;;;;;;10.90;99.90;;;;;;5446203;26;20413;-75
2024/04/12 06:38:22;;;;;;;14.25;4.50;;;11.00;99.90;;;;;;5444551;26;19924;-77
2024/04/12 06:40:57;;;;;;;16.42;4.68;;;11.10;99.90;;;;;;5430946;26;19992;-75
2024/04/12 06:43:23;;;;;;;13.43;4.32;;;11.20;99.90;;;;;;5437712;26;19999;-75
2024/04/12 06:46:00;;;;;;;9.63;4.70;;;11.40;99.90;;;;;;5442022;26;20079;-75
2024/04/12 06:48:26;;;;;;;8.13;5.00;;;11.40;92.20;;;;;;5440378;26;19998;-75
2024/04/12 06:50:56;;;;;;;11.88;4.65;;;11.40;93.40;;;;;;5442158;26;20345;-74
2024/04/12 06:53:25;;;;;;;18.38;5.32;;;11.40;91.10;;;;;;5442524;26;19995;-74
2024/04/12 06:55:58;;;;;;;14.65;4.97;;;11.30;81.70;;;;;;5437093;26;20013;-74
2024/04/12 06:58:25;;;;;;;8.73;4.85;;;11.40;95.40;;;;;;5441539;26;20009;-75
2024/04/12 07:00:57;;;;;;;9.60;4.57;;;11.50;99.90;;;;;;5441282;26;20017;-75
2024/04/12 07:03:23;;;;;;;11.27;4.80;;;11.60;95.60;;;;;;5439968;26;19999;-75
2024/04/12 07:05:53;;;;;;;10.50;4.85;;;11.70;88.00;;;;;;5441782;26;19995;-75
2024/04/12 07:08:22;;;;;;;11.32;4.13;;;11.90;87.40;;;;;;5443960;26;19995;-74
2024/04/12 07:10:50;;;;;;;12.90;4.45;;;12.00;86.80;;;;;;5444308;26;20031;-77
2024/04/12 07:13:27;;;;;;;9.88;3.92;;;12.20;97.20;;;;;;5435543;26;20508;-75
2024/04/12 07:15:56;;;;;;;5.53;3.47;;;12.30;44.00;;;;;;5448228;26;20079;-75
2024/04/12 07:18:22;;;;;;;5.78;3.03;;;12.20;31.50;;;;;;5447187;26;19999;-76
2024/04/12 07:20:52;;;;;;;11.90;3.88;;;12.40;48.10;;;;;;5448424;26;20009;-76
2024/04/12 07:23:18;;;;;;;5.60;3.00;;;12.70;14.40;;;;;;5417484;26;20013;-77
2024/04/12 07:25:47;;;;;;;6.78;3.35;;;12.90;45.00;;;;;;5448929;26;20002;-76
2024/04/12 07:28:18;;;;;;;8.50;2.80;;;13.10;9.90;;;;;;5439856;26;19999;-75
2024/04/12 07:30:44;;;;;;;5.38;2.78;;;13.00;1.00;;;;;;5449545;26;20035;-76
2024/04/12 07:33:11;;;;;;;11.20;3.00;;;12.90;1.00;;;;;;5448373;26;20079;-77
2024/04/12 07:35:39;;;;;;;9.30;2.95;;;13.10;1.00;;;;;;5449632;26;20002;-76
2024/04/12 07:38:04;;;;;;;8.60;3.50;;;13.30;1.00;;;;;;5449793;26;19999;-76
2024/04/12 07:40:34;;;;;;;6.82;3.03;;;13.50;4.80;;;;;;5450110;26;20356;-76
2024/04/12 07:43:08;;;;;;;11.93;3.85;;;13.50;1.00;;;;;;5445964;26;20013;-76
2024/04/12 07:45:37;;;;;;;7.10;3.60;;;13.30;1.00;;;;;;5446768;26;20014;-76
2024/04/12 07:50:54;;;;;;;9.23;4.32;;;13.50;1.00;;;;;;5448805;26;20035;-76
2024/04/12 07:53:23;;;;;;;11.10;3.95;;;13.60;1.00;;;;;;5449574;26;20343;-76
2024/04/12 07:56:00;;;;;;;9.20;2.92;;;13.60;1.00;;;;;;5449041;26;20003;-75
2024/04/12 07:58:27;;;;;;;11.77;2.80;;;13.80;1.00;;;;;;5449137;26;20510;-77
2024/04/12 08:01:09;;;;;;;8.38;2.80;;;13.90;1.00;;;;;;5447229;26;20020;-77
2024/04/12 08:03:42;;;;;;;10.23;3.25;;;14.10;1.00;;;;;;5448572;26;20444;-75
2024/04/12 08:06:19;;;;;;;10.77;2.75;;;14.40;1.00;;;;;;5448910;26;19998;-76
2024/04/12 08:08:46;;;;;;;5.18;2.85;;;14.70;1.00;;;;;;5427215;26;20082;-76
2024/04/12 08:11:33;;;;;;;7.32;2.65;;;14.80;1.00;;;;;;5433617;26;19994;-75
2024/04/12 08:14:06;;;;;;;7.55;2.45;;;14.80;1.00;;;;;;5437770;26;20010;-75
2024/04/12 08:16:38;;;;;;;12.60;3.30;;;14.90;99.90;;;;;;5453422;26;19994;-75
2024/04/12 08:19:13;;;;;;;10.43;2.20;;;15.00;1.00;;;;;;5428468;26;20002;-77
2024/04/12 08:21:43;;;;;;;7.85;2.35;;;15.40;1.00;;;;;;5440496;26;20014;-77
2024/04/12 08:24:10;;;;;;;3.80;1.90;;;15.30;1.00;;;;;;5445055;26;20009;-76
2024/04/12 08:26:45;;;;;;;7.20;2.33;;;15.10;99.90;;;;;;5444309;26;20013;-76
2024/04/12 08:29:20;;;;;;;9.60;3.28;;;15.20;99.90;;;;;;5445365;26;20033;-76
2024/04/12 08:31:49;;;;;;;8.73;3.13;;;15.40;1.00;;;;;;5443986;26;20041;-76
2024/04/12 08:34:15;;;;;;;7.75;2.20;;;15.50;99.90;;;;;;5442346;26;19991;-77
2024/04/12 08:36:44;;;;;;;10.77;2.50;;;15.60;1.00;;;;;;5444950;26;20006;-76
2024/04/12 08:39:25;;;;;;;11.07;4.28;;;15.80;1.00;;;;;;5444579;26;20590;-76
2024/04/12 08:41:59;;;;;;;12.13;2.78;;;15.60;99.90;;;;;;5444117;26;20444;-76
2024/04/12 08:44:26;;;;;;;9.73;2.40;;;15.70;99.90;;;;;;5444989;26;20251;-76
2024/04/12 08:46:53;;;;;;;9.23;2.70;;;16.00;99.90;;;;;;5443065;26;20336;-78
2024/04/12 08:49:20;;;;;;;8.60;1.95;;;16.50;99.90;;;;;;5435646;26;20011;-77
2024/04/12 08:51:53;;;;;;;6.80;2.42;;;16.50;99.90;;;;;;5435692;26;20010;-76
2024/04/12 08:54:20;;;;;;;7.60;2.65;;;16.70;99.90;;;;;;5437296;26;20074;-76
2024/04/12 08:56:47;;;;;;;5.43;2.20;;;16.60;99.90;;;;;;5433664;26;20055;-76
2024/04/12 08:59:17;;;;;;;3.88;2.25;;;16.80;99.90;;;;;;5447546;26;20002;-76
2024/04/12 09:01:45;;;;;;;6.03;2.42;;;17.00;99.90;;;;;;5447044;26;19999;-76
2024/04/12 09:04:16;;;;;;;5.90;2.17;;;17.30;99.90;;;;;;5447016;26;19999;-77
2024/04/12 09:06:41;;;;;;;10.85;2.25;;;17.40;99.90;;;;;;5447161;26;20471;-78
2024/04/12 09:09:13;;;;;;;7.57;2.55;;;17.30;99.90;;;;;;5447129;26;19999;-77
2024/04/12 09:11:44;;;;;;;5.53;2.72;;;17.50;99.90;;;;;;5447148;26;20018;-77
2024/04/12 09:14:19;;;;;;;7.10;2.28;;;17.40;99.90;;;;;;5447151;26;19999;-76
2024/04/12 09:16:47;;;;;;;;;;;17.30;99.90;;;;;;5446483;26;20005;-77
2024/04/12 09:19:14;;;;;;;8.93;2.75;;;18.10;99.90;;;;;;5427189;26;19936;-76
2024/04/12 09:21:58;;;;;;;11.90;1.95;;;18.30;99.90;;;;;;5423625;26;20011;-76
2024/04/12 09:24:31;;;;;;;8.70;2.30;;;18.00;99.90;;;;;;5405258;26;20622;-78
2024/04/12 09:27:05;;;;;;;4.78;1.95;;;18.20;99.90;;;;;;5424376;26;20339;-77
2024/04/12 09:29:32;;;;;;;4.50;1.98;;;18.10;99.90;;;;;;5429102;26;20852;-77
2024/04/12 09:34:55;;;;;;;;;;;18.60;99.90;;;;;;5442960;26;20010;-77
2024/04/12 09:42:47;;;;;;;6.50;1.45;;;18.30;99.90;;;;;;5438246;26;20003;-77
2024/04/12 09:45:21;;;;;;;5.45;1.90;;;18.10;99.90;;;;;;5413540;26;20685;-77
2024/04/12 10:37:44;;;;;;;7.00;1.60;;;19.20;99.90;;;;;;5446776;26;20452;-77
2024/04/12 10:40:11;;;;;;;9.52;1.95;;;19.10;99.90;;;;;;5446037;26;19999;-77
2024/04/12 10:42:37;;;;;;;7.82;2.47;;;18.80;99.90;;;;;;5435184;26;20000;-78
2024/04/12 10:45:07;;;;;;;3.67;1.65;;;19.00;99.90;;;;;;5433176;26;20068;-77
2024/04/12 10:47:39;;;;;;;2.45;1.48;;;19.30;99.90;;;;;;5448271;26;20122;-77
2024/04/12 10:50:05;;;;;;;6.80;1.55;;;19.50;99.90;;;;;;5431458;26;20336;-78
2024/04/12 10:52:31;;;;;;;6.47;1.70;;;19.90;99.90;;;;;;5427887;26;20013;-77
2024/04/12 10:54:59;;;;;;;6.03;1.83;;;20.10;99.90;;;;;;5437718;26;20451;-77
2024/04/12 10:57:27;;;;;;;4.00;1.50;;;19.70;99.90;;;;;;5444410;26;20003;-76
2024/04/12 10:59:53;;;;;;;3.75;1.77;;;19.70;99.90;;;;;;5434142;26;20014;-74
2024/04/12 11:02:19;;;;;;;6.28;1.80;;;19.20;99.90;;;;;;5444435;26;20006;-77
2024/04/12 11:07:30;;;;;;;10.50;2.20;;;18.90;99.90;;;;;;5445844;26;20022;-78
2024/04/12 11:10:00;;;;;;;6.63;1.98;;;19.00;99.90;;;;;;5444813;26;20048;-76
2024/04/12 11:12:30;;;;;;;8.38;2.55;;;19.00;99.90;;;;;;5432324;26;20003;-75
2024/04/12 11:31:06;;;;;;;6.93;2.00;;;19.40;99.90;;;;;;5437047;26;20010;-76
2024/04/12 11:31:59;;;;;;;8.07;1.90;;;18.80;99.90;;;;;;5440001;26;20025;-76
2024/04/12 11:34:29;;;;;;;11.50;1.90;;;19.00;99.90;;;;;;5441346;26;20679;-73
2024/04/12 11:37:00;;;;;;;7.25;1.95;;;19.00;99.90;;;;;;5441675;26;19999;-75
2024/04/12 11:39:26;;;;;;;4.65;2.03;;;19.10;99.90;;;;;;5442129;26;20092;-75
2024/04/12 11:41:55;;;;;;;5.03;1.83;;;19.20;99.90;;;;;;5441373;26;20476;-74
2024/04/12 11:44:23;;;;;;;9.00;2.47;;;19.50;99.90;;;;;;5441975;26;20078;-76
2024/04/12 11:46:49;;;;;;;10.20;2.10;;;19.40;99.90;;;;;;5441008;26;19999;-75
2024/04/12 11:49:25;;;;;;;7.20;1.40;;;20.00;99.90;;;;;;5428518;26;20002;-74
2024/04/12 11:52:01;;;;;;;;;;;20.80;99.90;;;;;;5442399;26;20006;-74
2024/04/12 11:54:29;;;;;;;8.38;1.65;;;21.10;74.80;;;;;;5442100;26;19939;-74
2024/04/12 11:57:05;;;;;;;6.15;1.40;;;21.30;10.30;;;;;;5441105;26;20018;-75
2024/04/12 11:59:31;;;;;;;3.85;1.17;;;21.90;99.90;;;;;;5420424;26;19995;-76
2024/04/12 12:02:01;;;;;;;4.40;1.58;;;22.60;1.00;;;;;;5434051;26;19998;-75
2024/04/12 12:04:31;;;;;;;5.82;1.67;;;23.70;99.90;;;;;;5440722;26;19999;-77
2024/04/12 12:06:59;;;;;;;4.82;1.45;;;22.00;99.90;;;;;;5445583;26;20010;-75
2024/04/12 12:09:31;;;;;;;6.57;1.30;;;21.10;99.90;;;;;;5447016;26;20010;-75
2024/04/12 12:11:57;;;;;;;5.28;2.05;;;20.60;99.90;;;;;;5427516;26;19996;-75
2024/04/12 12:14:25;;;;;;;3.20;1.30;;;20.40;99.90;;;;;;5440830;26;20018;-75
2024/04/12 12:16:57;;;;;;;4.43;1.52;;;21.60;99.90;;;;;;5445829;26;20451;-76
2024/04/12 12:19:23;;;;;;;6.68;1.48;;;21.70;98.70;;;;;;5443489;26;20010;-76
2024/04/12 12:21:51;;;;;;;12.73;1.52;;;21.30;99.90;;;;;;5439943;26;19995;-76
2024/04/12 12:24:17;;;;;;;2.60;1.30;;;22.10;99.20;;;;;;5431773;26;19999;-75
2024/04/12 12:26:44;;;;;;;5.95;1.20;;;22.90;23.20;;;;;;5429603;26;19999;-76
2024/04/12 12:29:13;;;;;;;8.90;1.50;;;22.90;99.90;;;;;;5447621;26;20011;-76
2024/04/12 12:31:38;;;;;;;2.63;0.88;;;22.50;36.20;;;;;;5415125;26;20003;-76
2024/04/12 12:34:05;;;;;;;6.18;1.02;;;22.20;1.00;;;;;;5446993;26;20005;-76
2024/04/12 12:36:31;;;;;;;6.82;1.30;;;22.10;1.00;;;;;;5447533;26;20081;-76
2024/04/12 12:38:58;;;;;;;4.28;1.20;;;21.90;1.00;;;;;;5443650;26;19999;-76
2024/04/12 12:41:25;;;;;;;3.70;1.25;;;21.60;99.90;;;;;;5432186;26;19998;-77
2024/04/12 12:43:52;;;;;;;4.82;1.30;;;21.90;99.90;;;;;;5446983;26;19999;-76
2024/04/12 12:46:21;;;;;;;6.18;1.33;;;21.70;63.40;;;;;;5446713;26;20010;-77
2024/04/12 12:48:48;;;;;;;11.40;1.17;;;21.60;1.00;;;;;;5446623;26;20003;-76
2024/04/12 12:51:15;;;;;;;2.38;1.30;;;21.80;1.00;;;;;;5447352;26;20030;-75
2024/04/12 12:53:43;;;;;;;3.92;1.10;;;21.70;3.50;;;;;;5442055;26;20077;-76
2024/04/12 12:56:09;;;;;;;3.03;1.13;;;22.30;84.90;;;;;;5445106;26;19995;-76
2024/04/12 12:58:37;;;;;;;3.72;0.98;;;22.20;1.00;;;;;;5431771;26;20003;-75
2024/04/12 13:01:07;;;;;;;4.93;0.95;;;22.80;37.00;;;;;;5445295;26;20027;-76
2024/04/12 13:03:36;;;;;;;6.28;1.08;;;23.80;99.90;;;;;;5446462;26;19998;-75
2024/04/12 13:06:06;;;;;;;3.47;1.20;;;24.70;99.90;;;;;;5442410;26;19998;-77
2024/04/12 13:08:39;;;;;;;4.88;1.40;;;23.50;1.00;;;;;;5430947;26;20004;-77
2024/04/12 13:11:08;;;;;;;4.13;1.08;;;23.50;99.90;;;;;;5440926;26;19999;-77
2024/04/12 13:13:41;;;;;;;1.02;0.68;;;23.40;1.00;;;;;;5445532;26;20048;-77
2024/04/12 13:16:11;;;;;;;9.07;1.08;;;23.00;1.00;;;;;;5442699;26;20014;-77
2024/04/12 13:18:45;;;;;;;10.30;2.10;;;22.60;99.90;;;;;;5446372;26;19999;-76
2024/04/12 13:21:11;;;;;;;5.20;1.13;;;23.10;19.10;;;;;;5445986;26;20010;-76
2024/04/12 13:23:37;;;;;;;2.17;0.90;;;22.80;99.90;;;;;;5415276;26;19999;-77
2024/04/12 13:26:06;;;;;;;3.95;0.88;;;22.70;1.00;;;;;;5446527;26;19995;-77
2024/04/12 13:28:41;;;;;;;2.17;0.80;;;23.30;99.90;;;;;;5430601;26;19999;-76
2024/04/12 13:31:10;;;;;;;3.78;0.75;;;23.50;99.90;;;;;;5439349;26;19991;-76
2024/04/12 13:33:36;;;;;;;4.25;0.80;;;22.80;99.90;;;;;;5435019;26;19995;-76
2024/04/12 13:36:10;;;;;;;7.57;1.27;;;21.60;99.90;;;;;;5434758;26;20039;-78
2024/04/12 13:38:36;;;;;;;4.85;1.75;;;21.40;12.60;;;;;;5440835;26;20014;-77
2024/04/12 13:41:04;;;;;;;6.85;1.40;;;20.90;12.80;;;;;;5446352;26;20002;-77
2024/04/12 13:43:32;;;;;;;6.93;1.60;;;21.20;99.90;;;;;;5445569;26;20021;-76
2024/04/12 13:51:29;;;;;;;4.00;1.05;;;21.30;99.90;;;;;;5446633;26;20075;-76
2024/04/12 13:53:55;;;;;;;6.18;1.20;;;21.10;99.90;;;;;;5443921;26;19999;-75
2024/04/12 13:59:10;;;;;;;4.53;1.05;;;21.10;99.90;;;;;;5434881;26;19995;-76
2024/04/12 14:01:40;;;;;;;3.72;0.98;;;21.10;1.00;;;;;;5431456;26;20581;-75
2024/04/12 14:04:09;;;;;;;3.55;1.00;;;21.40;1.00;;;;;;5412848;26;20782;-75
2024/04/12 14:06:37;;;;;;;4.88;1.00;;;21.10;99.90;;;;;;5399609;26;20015;-75
2024/04/12 14:09:12;;;;;;;5.53;1.88;;;21.00;1.10;;;;;;5406603;26;20047;-76
2024/04/12 14:11:42;;;;;;;4.07;1.05;;;21.40;99.90;;;;;;5360985;26;20018;-75
2024/04/12 14:14:08;;;;;;;1.13;0.82;;;21.20;1.00;;;;;;5406119;26;20039;-76
2024/04/12 14:16:41;;;;;;;3.53;1.65;;;21.40;99.90;;;;;;5396796;26;20046;-75
2024/04/12 14:19:20;;;;;;;4.13;0.95;;;21.40;99.90;;;;;;5381628;26;19996;-75
2024/04/12 14:21:51;;;;;;;4.13;1.13;;;21.20;99.90;;;;;;5370357;26;20027;-76
2024/04/12 14:27:04;;;;;;;2.47;0.88;;;21.20;99.90;;;;;;5403163;26;20003;-76
2024/04/12 14:29:31;;;;;;;5.78;1.50;;;21.70;99.90;;;;;;5407418;26;20010;-75
2024/04/12 14:32:05;;;;;;;3.72;1.45;;;21.10;17.70;;;;;;5407024;26;20031;-77
2024/04/12 14:34:32;;;;;;;2.03;0.80;;;20.70;99.90;;;;;;5407189;26;20008;-76
2024/04/12 14:36:59;;;;;;;1.88;0.90;;;21.00;99.90;;;;;;5407891;26;20015;-76